Time;durP1;ratioP1;P1;durP2;ratioP2;P2;SDS_P1;SDS_P2;PMS_P1;PMS_P2;Temp;Humidity;BMP_temperature;BMP_pressure;BME280_temperature;BME280_humidity;BME280_pressure;Samples;Min_cycle;Max_cycle;Signal;HPM_P1;HPM_P2
2022/10/24 00:01:11;;;;;;;20.50;13.40;;;;;;;10.32;84.67;99768.05;214987;1277;142043;-72
2022/10/24 00:06:16;;;;;;;21.30;14.00;;;;;;;10.23;84.72;99770.59;215006;1279;141034;-79
2022/10/24 00:11:24;;;;;;;18.10;13.30;;;;;;;10.12;84.98;99775.27;215020;1278;141080;-75
2022/10/24 00:16:30;;;;;;;19.10;13.50;;;;;;;10.15;85.35;99782.90;215071;1277;140302;-76
2022/10/24 00:21:36;;;;;;;14.60;12.10;;;;;;;10.24;85.50;99783.52;215312;1277;142707;-75
2022/10/24 00:26:41;;;;;;;13.00;9.80;;;;;;;10.22;85.33;99777.56;215321;1277;142159;-77
2022/10/24 00:31:46;;;;;;;17.50;12.80;;;;;;;10.11;85.21;99772.75;215214;1277;140401;-74
2022/10/24 00:36:50;;;;;;;21.70;15.10;;;;;;;10.00;85.24;99768.70;214343;1277;141559;-73
2022/10/24 00:41:57;;;;;;;19.50;15.00;;;;;;;9.95;85.86;99768.90;215324;1277;140699;-71
2022/10/24 00:47:27;;;;;;;28.60;17.20;;;;;;;9.99;86.02;99768.35;215150;1277;142634;-72
2022/10/24 00:52:35;;;;;;;22.00;15.90;;;;;;;10.03;86.15;99758.49;214621;1277;152127;-71
2022/10/24 00:57:45;;;;;;;22.40;16.80;;;;;;;10.05;86.27;99751.95;214570;1277;141927;-73
2022/10/24 01:02:50;;;;;;;27.20;17.80;;;;;;;10.06;86.30;99747.30;215052;1279;141185;-75
2022/10/24 01:08:13;;;;;;;21.70;16.00;;;;;;;10.09;86.45;99744.40;215165;1277;140733;-73
2022/10/24 01:13:33;;;;;;;20.60;15.20;;;;;;;10.16;86.70;99747.23;214975;1277;142003;-72
2022/10/24 01:18:38;;;;;;;17.50;15.40;;;;;;;10.23;86.68;99743.73;215172;1277;141839;-71
2022/10/24 01:24:14;;;;;;;16.00;13.00;;;;;;;10.26;86.81;99739.77;215300;1277;141649;-72
2022/10/24 01:29:22;;;;;;;26.00;15.90;;;;;;;10.28;87.02;99739.67;213910;1277;141163;-70
2022/10/24 01:34:43;;;;;;;22.90;15.00;;;;;;;10.29;87.06;99732.07;215216;1277;140197;-71
2022/10/24 01:39:54;;;;;;;22.70;15.00;;;;;;;10.32;87.13;99717.48;215083;1277;161602;-72
2022/10/24 01:45:01;;;;;;;26.20;17.30;;;;;;;10.33;87.27;99700.86;215469;1277;141298;-72
2022/10/24 01:50:10;;;;;;;26.10;19.00;;;;;;;10.32;87.39;99697.88;215287;1277;140285;-79
2022/10/24 01:55:15;;;;;;;21.10;16.50;;;;;;;10.35;87.39;99688.35;215221;1277;142168;-78
2022/10/24 02:00:21;;;;;;;19.60;16.10;;;;;;;10.36;87.43;99678.98;215291;1276;141037;-75
2022/10/24 02:06:02;;;;;;;23.40;18.00;;;;;;;10.40;87.60;99680.65;215552;1277;141294;-75
2022/10/24 02:11:09;;;;;;;18.60;15.60;;;;;;;10.48;87.77;99674.69;214985;1277;141506;-74
2022/10/24 02:16:17;;;;;;;22.60;16.00;;;;;;;10.54;88.03;99661.95;214816;1279;140575;-74
2022/10/24 02:21:25;;;;;;;25.90;17.90;;;;;;;10.61;88.14;99645.04;215085;1277;141935;-79
2022/10/24 02:26:46;;;;;;;18.80;14.00;;;;;;;10.68;88.23;99640.39;215473;1277;141406;-80
2022/10/24 02:31:57;;;;;;;27.10;17.60;;;;;;;10.73;88.14;99646.98;214693;1278;143388;-75
2022/10/24 02:37:05;;;;;;;20.00;13.90;;;;;;;10.80;88.11;99650.20;215381;1277;140375;-75
2022/10/24 02:42:11;;;;;;;23.70;14.20;;;;;;;10.84;88.09;99642.23;215234;1277;141225;-75
2022/10/24 02:47:20;;;;;;;20.90;16.10;;;;;;;10.88;88.13;99636.21;214931;1275;140967;-75
2022/10/24 02:52:25;;;;;;;23.90;16.70;;;;;;;10.93;88.38;99628.48;215517;1277;140850;-70
2022/10/24 02:57:30;;;;;;;25.80;16.30;;;;;;;10.97;88.26;99631.77;215548;1277;140399;-70
2022/10/24 03:02:34;;;;;;;21.70;14.60;;;;;;;11.04;88.10;99626.27;214147;1277;140210;-68
2022/10/24 03:07:39;;;;;;;23.50;15.00;;;;;;;11.09;88.38;99622.41;214988;1277;141863;-78
2022/10/24 03:12:44;;;;;;;25.20;16.20;;;;;;;11.14;88.13;99618.66;215490;1277;141243;-75
2022/10/24 03:17:49;;;;;;;22.10;14.30;;;;;;;11.17;88.19;99608.71;215550;1277;140516;-69
2022/10/24 03:22:53;;;;;;;21.50;13.70;;;;;;;11.25;88.23;99599.53;214276;1277;140680;-70
2022/10/24 03:27:57;;;;;;;22.10;15.00;;;;;;;11.23;88.27;99588.08;214187;1277;140348;-75
2022/10/24 03:33:02;;;;;;;21.50;16.10;;;;;;;11.16;88.07;99567.30;215267;1277;140646;-73
2022/10/24 03:38:07;;;;;;;27.30;16.30;;;;;;;11.07;87.80;99551.05;215511;1277;140515;-75
2022/10/24 03:43:11;;;;;;;24.60;13.00;;;;;;;11.01;87.98;99536.91;214857;1277;140837;-73
2022/10/24 03:48:15;;;;;;;16.90;12.70;;;;;;;10.97;88.02;99533.50;215711;1277;141648;-74
2022/10/24 03:53:19;;;;;;;29.30;17.90;;;;;;;10.96;87.98;99530.40;215699;1277;141669;-74
2022/10/24 03:58:24;;;;;;;24.50;16.50;;;;;;;11.02;88.15;99558.31;215533;1276;141869;-75
2022/10/24 04:03:28;;;;;;;27.10;16.70;;;;;;;11.10;88.10;99565.60;215235;1277;140545;-74
2022/10/24 04:08:32;;;;;;;25.50;16.80;;;;;;;11.19;88.51;99572.42;215247;1277;144867;-77
2022/10/24 04:13:35;;;;;;;23.90;15.20;;;;;;;11.32;88.36;99566.54;215332;1277;140626;-78
2022/10/24 04:18:40;;;;;;;27.80;17.50;;;;;;;11.37;88.20;99565.59;215341;1277;142147;-73
2022/10/24 04:23:44;;;;;;;23.20;16.10;;;;;;;11.41;88.32;99571.11;215488;1277;141453;-73
2022/10/24 04:28:52;;;;;;;16.80;13.60;;;;;;;11.47;88.09;99577.13;215292;1277;142829;-73
2022/10/24 04:33:55;;;;;;;21.50;15.10;;;;;;;11.48;87.91;99572.55;215333;1277;140257;-72
2022/10/24 04:38:59;;;;;;;20.10;14.10;;;;;;;11.52;88.16;99585.91;215108;1277;140927;-72
2022/10/24 04:44:08;;;;;;;25.80;14.40;;;;;;;11.58;87.94;99585.20;214817;1277;141581;-70
2022/10/24 04:49:11;;;;;;;20.80;15.20;;;;;;;11.57;87.95;99579.59;215049;1277;425823;-71
2022/10/24 04:54:14;;;;;;;17.70;13.70;;;;;;;11.55;88.24;99576.28;215195;1277;237485;-74
2022/10/24 04:59:19;;;;;;;22.70;15.40;;;;;;;11.55;88.02;99579.45;213219;1277;211268;-72
2022/10/24 05:04:23;;;;;;;25.60;14.70;;;;;;;11.58;88.18;99577.89;215268;1277;140872;-74
2022/10/24 05:09:27;;;;;;;19.40;15.00;;;;;;;11.61;88.31;99574.92;215277;1277;140736;-73
2022/10/24 05:14:33;;;;;;;19.90;13.60;;;;;;;11.66;88.17;99564.31;215431;1276;141946;-75
2022/10/24 05:19:37;;;;;;;22.30;15.00;;;;;;;11.69;88.20;99557.20;215396;1277;140132;-72
2022/10/24 05:24:40;;;;;;;23.50;12.90;;;;;;;11.74;88.21;99559.46;214232;1277;140737;-75
2022/10/24 05:29:46;;;;;;;28.20;16.20;;;;;;;11.73;88.10;99559.67;215489;1277;140963;-71
2022/10/24 05:34:51;;;;;;;30.80;14.90;;;;;;;11.73;88.18;99560.88;214890;1277;140102;-71
2022/10/24 05:39:56;;;;;;;19.70;16.20;;;;;;;11.77;88.24;99569.58;214907;1277;140910;-73
2022/10/24 05:45:00;;;;;;;20.00;14.40;;;;;;;11.86;88.33;99582.52;214967;1277;140987;-75
2022/10/24 05:50:05;;;;;;;18.50;13.60;;;;;;;11.91;88.24;99592.75;215473;1277;140495;-72
2022/10/24 05:55:10;;;;;;;17.60;14.30;;;;;;;11.97;88.13;99589.93;215245;1276;141350;-78
2022/10/24 06:00:19;;;;;;;22.30;15.40;;;;;;;12.07;88.48;99584.19;215456;1277;140859;-75
2022/10/24 06:05:24;;;;;;;15.00;12.40;;;;;;;12.22;88.30;99588.33;215348;1277;140796;-75
2022/10/24 06:10:28;;;;;;;13.50;10.20;;;;;;;12.32;88.07;99588.66;215456;1276;140463;-76
2022/10/24 06:15:32;;;;;;;16.00;11.50;;;;;;;12.32;87.63;99594.79;215408;1277;139775;-74
2022/10/24 06:20:37;;;;;;;15.40;10.80;;;;;;;12.35;87.55;99600.40;215394;1276;141968;-73
2022/10/24 06:25:41;;;;;;;15.90;11.30;;;;;;;12.40;87.81;99596.40;215377;1277;141428;-78
2022/10/24 06:30:48;;;;;;;18.30;12.80;;;;;;;12.44;87.43;99598.22;215337;1277;141224;-78
2022/10/24 06:35:52;;;;;;;11.10;10.00;;;;;;;12.51;87.44;99603.90;215554;1277;140716;-77
2022/10/24 06:40:58;;;;;;;16.90;10.70;;;;;;;12.52;87.28;99604.50;215483;1277;139572;-78
2022/10/24 06:46:10;;;;;;;13.30;10.80;;;;;;;12.53;87.33;99599.33;215400;1276;140581;-79
2022/10/24 06:51:15;;;;;;;19.30;12.40;;;;;;;12.59;87.30;99590.92;212882;1277;141617;-79
2022/10/24 06:56:21;;;;;;;13.00;9.60;;;;;;;12.71;87.37;99599.41;215208;1277;140708;-70
2022/10/24 07:01:26;;;;;;;10.60;8.90;;;;;;;12.78;87.02;99608.38;214901;1276;140730;-67
2022/10/24 07:06:31;;;;;;;12.60;9.50;;;;;;;12.82;87.05;99608.58;215227;1277;141084;-67
2022/10/24 07:11:36;;;;;;;16.20;10.20;;;;;;;12.89;87.08;99610.98;215364;1277;140347;-70
2022/10/24 07:16:40;;;;;;;11.90;10.00;;;;;;;12.98;86.91;99625.41;215315;1277;141526;-70
2022/10/24 07:21:44;;;;;;;16.30;10.20;;;;;;;13.08;86.86;99629.86;215314;1278;141132;-69
2022/10/24 07:26:49;;;;;;;10.50;7.70;;;;;;;13.22;86.89;99628.55;215481;1277;144992;-71
2022/10/24 07:31:54;;;;;;;13.60;10.40;;;;;;;13.39;86.73;99622.77;215429;1276;141728;-76
2022/10/24 07:36:58;;;;;;;13.00;9.50;;;;;;;13.48;86.63;99616.61;215402;1277;139728;-71
2022/10/24 07:42:02;;;;;;;10.00;8.70;;;;;;;13.58;86.40;99626.44;215448;1277;140047;-71
2022/10/24 07:47:08;;;;;;;17.30;9.70;;;;;;;13.70;86.41;99616.61;215258;1276;140800;-75
2022/10/24 07:52:13;;;;;;;11.10;8.90;;;;;;;13.86;86.11;99620.73;215351;1277;142062;-72
2022/10/24 07:57:18;;;;;;;12.20;10.10;;;;;;;13.97;86.05;99614.85;215128;1278;141666;-78
2022/10/24 08:02:22;;;;;;;10.70;8.20;;;;;;;14.12;85.65;99609.29;215227;1277;142025;-77
2022/10/24 08:07:26;;;;;;;10.80;8.00;;;;;;;14.27;85.67;99599.72;215373;1277;163660;-75
2022/10/24 08:12:30;;;;;;;11.00;7.20;;;;;;;14.42;85.29;99604.83;215592;1277;140586;-74
2022/10/24 08:17:35;;;;;;;12.10;5.60;;;;;;;14.52;85.06;99607.29;215482;1277;141179;-74
2022/10/24 08:22:40;;;;;;;13.80;8.80;;;;;;;14.61;84.58;99595.47;215527;1277;141274;-76
2022/10/24 08:27:44;;;;;;;8.90;7.90;;;;;;;14.75;84.57;99588.51;215548;1276;142301;-75
2022/10/24 08:32:48;;;;;;;8.40;7.30;;;;;;;14.92;84.58;99597.56;215321;1277;141077;-76
2022/10/24 08:37:52;;;;;;;12.10;9.40;;;;;;;15.04;84.22;99592.15;215299;1276;142387;-72
2022/10/24 08:42:56;;;;;;;14.30;8.60;;;;;;;15.19;83.90;99586.80;215328;1276;142064;-71
2022/10/24 08:48:08;;;;;;;10.30;8.20;;;;;;;15.23;83.48;99588.73;215184;1277;141140;-75
2022/10/24 08:53:22;;;;;;;10.00;8.30;;;;;;;15.22;83.24;99583.95;215382;1277;140652;-74
2022/10/24 08:58:31;;;;;;;8.60;7.10;;;;;;;15.27;83.25;99596.73;215518;1276;141994;-73
2022/10/24 09:03:49;;;;;;;7.60;6.80;;;;;;;15.28;82.83;99607.73;215223;1277;140706;-74
2022/10/24 09:09:14;;;;;;;8.30;6.50;;;;;;;15.26;82.68;99616.38;214808;1276;141895;-75
2022/10/24 09:14:23;;;;;;;10.90;8.30;;;;;;;15.36;82.68;99622.34;215074;1278;141622;-82
2022/10/24 09:19:31;;;;;;;8.10;6.70;;;;;;;15.47;82.69;99624.45;213827;1277;140413;-76
2022/10/24 09:24:46;;;;;;;7.60;6.70;;;;;;;15.57;82.42;99616.77;215293;1276;232669;-71
2022/10/24 09:29:51;;;;;;;12.00;7.00;;;;;;;15.64;82.07;99606.98;215476;1277;139835;-72
2022/10/24 09:35:20;;;;;;;9.10;7.40;;;;;;;15.76;82.24;99603.48;215402;1276;140360;-72
2022/10/24 09:40:29;;;;;;;9.70;6.70;;;;;;;15.96;81.99;99604.13;213528;1278;139879;-72
2022/10/24 09:45:38;;;;;;;6.70;6.00;;;;;;;16.08;81.64;99604.48;215272;1277;140319;-74
2022/10/24 09:50:44;;;;;;;6.80;6.10;;;;;;;16.22;81.46;99601.35;213231;1278;141202;-73
2022/10/24 09:55:51;;;;;;;7.80;5.90;;;;;;;16.26;81.05;99591.91;215135;1277;139562;-79
2022/10/24 10:00:59;;;;;;;7.70;5.90;;;;;;;16.44;81.30;99600.20;215211;1277;140600;-73
2022/10/24 10:06:18;;;;;;;10.90;6.00;;;;;;;16.59;80.92;99602.15;214998;1277;142500;-71
2022/10/24 10:11:31;;;;;;;6.50;5.60;;;;;;;16.73;80.69;99608.15;214003;1277;140683;-71
2022/10/24 10:16:41;;;;;;;6.40;5.90;;;;;;;16.91;80.32;99607.70;215200;1277;140057;-77
2022/10/24 10:22:01;;;;;;;5.80;4.80;;;;;;;17.01;80.05;99616.96;215245;1277;139561;-73
2022/10/24 10:27:24;;;;;;;10.00;5.90;;;;;;;17.04;79.56;99620.45;215162;1278;140132;-77
2022/10/24 10:32:36;;;;;;;8.50;5.70;;;;;;;17.19;79.62;99617.90;215162;1278;141003;-77
2022/10/24 10:37:48;;;;;;;5.90;4.80;;;;;;;17.41;79.38;99609.92;215364;1277;140364;-79
2022/10/24 10:43:09;;;;;;;7.60;5.60;;;;;;;17.81;79.25;99608.43;215177;1278;140001;-74
2022/10/24 10:48:40;;;;;;;9.60;4.60;;;;;;;18.20;78.94;99610.05;215230;1277;140852;-75
2022/10/24 10:54:03;;;;;;;6.10;5.50;;;;;;;18.50;78.03;99609.96;215501;1277;141319;-80
2022/10/24 10:59:16;;;;;;;6.60;4.60;;;;;;;18.56;77.41;99609.85;215331;1277;237055;-74
2022/10/24 11:04:46;;;;;;;12.10;5.30;;;;;;;18.69;77.28;99604.12;214532;1278;139650;-73
2022/10/24 11:09:55;;;;;;;4.90;4.40;;;;;;;18.77;76.71;99598.13;215238;1277;141112;-76
2022/10/24 11:15:03;;;;;;;10.80;5.00;;;;;;;18.97;76.48;99595.77;215312;1278;140006;-75
2022/10/24 11:20:29;;;;;;;6.70;4.60;;;;;;;19.16;75.96;99598.68;215135;1279;141026;-71
2022/10/24 11:25:46;;;;;;;6.10;4.10;;;;;;;19.41;75.55;99589.19;215305;1276;139898;-72
2022/10/24 11:31:30;;;;;;;8.60;4.50;;;;;;;19.65;75.20;99580.64;213598;1277;141581;-71
2022/10/24 11:36:59;;;;;;;10.40;3.60;;;;;;;19.82;74.86;99575.13;213063;1278;142091;-71
2022/10/24 11:42:07;;;;;;;11.00;4.60;;;;;;;19.99;74.53;99573.76;214893;1278;142041;-69
2022/10/24 11:47:25;;;;;;;4.40;4.00;;;;;;;20.18;74.08;99570.30;215170;1278;139350;-72
2022/10/24 11:52:39;;;;;;;5.70;3.70;;;;;;;20.32;73.34;99567.90;215196;1277;140176;-72
2022/10/24 11:57:50;;;;;;;7.60;4.40;;;;;;;20.44;73.01;99553.48;214923;1278;141158;-72
2022/10/24 12:03:07;;;;;;;4.30;3.90;;;;;;;20.58;72.49;99552.64;215297;1277;140020;-75
2022/10/24 12:08:11;;;;;;;4.50;3.30;;;;;;;20.68;72.09;99555.39;215061;1278;141048;-75
2022/10/24 12:13:16;;;;;;;5.50;3.30;;;;;;;20.77;71.74;99556.26;215367;1277;139679;-72
2022/10/24 12:18:47;;;;;;;9.90;4.00;;;;;;;20.79;70.92;99553.69;214890;1277;141706;-75
2022/10/24 12:23:58;;;;;;;6.60;3.80;;;;;;;20.75;70.77;99545.48;215237;1277;140463;-73
2022/10/24 12:29:17;;;;;;;4.50;3.10;;;;;;;20.80;70.68;99541.45;214903;1277;140882;-76
2022/10/24 12:34:26;;;;;;;4.20;3.40;;;;;;;20.94;70.45;99534.73;215114;1279;140312;-75
2022/10/24 12:39:43;;;;;;;6.30;3.60;;;;;;;20.84;69.76;99531.52;215347;1277;140454;-75
2022/10/24 12:44:58;;;;;;;4.40;3.10;;;;;;;20.66;69.57;99533.44;215144;1276;140060;-80
2022/10/24 12:50:40;;;;;;;3.50;3.30;;;;;;;20.63;69.69;99529.98;215431;1278;140518;-77
2022/10/24 12:55:43;;;;;;;5.10;3.00;;;;;;;20.76;69.49;99521.58;214397;1279;141405;-75
2022/10/24 13:00:59;;;;;;;5.90;2.50;;;;;;;20.80;69.24;99520.00;215220;1277;141837;-73
2022/10/24 13:06:03;;;;;;;;;;;;;;;20.87;69.14;99515.55;215244;1278;140766;-70
2022/10/24 13:11:21;;;;;;;6.30;3.30;;;;;;;20.90;69.21;99510.60;214101;1279;127173;-75
2022/10/24 13:17:01;;;;;;;7.30;3.30;;;;;;;20.93;68.80;99520.00;214655;1277;145058;-72
2022/10/24 13:22:31;;;;;;;5.70;3.80;;;;;;;20.91;68.79;99519.19;215331;1277;140846;-74
2022/10/24 13:27:35;;;;;;;5.10;3.40;;;;;;;20.97;68.71;99518.12;214979;1278;139893;-74
2022/10/24 13:32:39;;;;;;;12.30;4.40;;;;;;;20.85;68.40;99516.41;215394;1277;140069;-75
2022/10/24 13:37:50;;;;;;;8.50;3.60;;;;;;;20.66;68.34;99519.31;215333;1278;139980;-74
2022/10/24 13:43:01;;;;;;;7.80;4.00;;;;;;;20.51;68.44;99521.00;215035;1278;139834;-73
2022/10/24 13:48:16;;;;;;;4.60;3.00;;;;;;;20.35;68.47;99526.64;212846;1278;248419;-71
2022/10/24 13:53:29;;;;;;;8.70;4.10;;;;;;;20.24;68.73;99526.23;215173;1277;141174;-71
2022/10/24 13:58:41;;;;;;;9.50;3.40;;;;;;;20.15;69.08;99539.73;215336;1277;140909;-78
2022/10/24 14:03:49;;;;;;;4.60;2.90;;;;;;;20.06;69.20;99538.29;215237;1277;139874;-79
2022/10/24 14:08:55;;;;;;;5.60;2.80;;;;;;;19.97;69.30;99534.73;215130;1278;140779;-79
2022/10/24 14:14:38;;;;;;;9.70;3.70;;;;;;;19.87;69.42;99533.33;215237;1277;140659;-73
2022/10/24 14:19:56;;;;;;;4.00;2.80;;;;;;;19.79;69.74;99534.93;215021;1277;140832;-74
2022/10/24 14:25:01;;;;;;;6.10;4.00;;;;;;;19.68;69.94;99536.64;215205;1277;139688;-72
2022/10/24 14:30:19;;;;;;;4.90;3.80;;;;;;;19.52;70.00;99537.01;215336;1277;140304;-73
2022/10/24 14:35:23;;;;;;;8.50;4.40;;;;;;;19.38;70.28;99535.66;215308;1278;140875;-77
2022/10/24 14:40:29;;;;;;;9.30;3.90;;;;;;;19.29;70.62;99545.71;215414;1277;139828;-72
2022/10/24 14:45:34;;;;;;;13.90;4.20;;;;;;;19.24;70.97;99555.11;215020;1278;139824;-73
2022/10/24 14:50:46;;;;;;;4.20;3.70;;;;;;;19.10;70.95;99558.19;215296;1277;142792;-73
2022/10/24 14:55:55;;;;;;;11.10;3.70;;;;;;;18.94;71.02;99560.17;215120;1279;142279;-72
2022/10/24 15:00:59;;;;;;;9.60;4.40;;;;;;;18.78;71.21;99558.19;215269;1277;140786;-74
2022/10/24 15:06:09;;;;;;;5.40;4.80;;;;;;;18.66;71.45;99553.45;215412;1278;139569;-69
2022/10/24 15:11:23;;;;;;;8.20;4.20;;;;;;;18.52;71.64;99547.05;215059;1279;139905;-70
2022/10/24 15:16:34;;;;;;;6.70;4.50;;;;;;;18.41;71.80;99541.62;214881;1278;141119;-72
2022/10/24 15:21:45;;;;;;;11.10;4.70;;;;;;;18.35;72.09;99549.98;215031;1278;140308;-73
2022/10/24 15:26:49;;;;;;;8.20;4.90;;;;;;;18.19;72.29;99550.14;215134;1278;140283;-70
2022/10/24 15:31:53;;;;;;;6.20;4.00;;;;;;;17.95;72.39;99552.41;213545;1278;140337;-73
2022/10/24 15:36:58;;;;;;;7.00;4.10;;;;;;;17.75;72.56;99548.60;214997;1278;140663;-77
2022/10/24 15:42:03;;;;;;;10.60;5.10;;;;;;;17.58;72.88;99537.48;215167;1277;140401;-76
2022/10/24 15:47:09;;;;;;;6.90;4.00;;;;;;;17.42;73.32;99544.48;215242;1277;140259;-73
2022/10/24 15:52:15;;;;;;;7.70;4.90;;;;;;;17.25;73.63;99546.05;213509;1278;140600;-75
2022/10/24 15:57:19;;;;;;;7.10;5.50;;;;;;;17.16;73.88;99549.73;215076;1277;140463;-73
2022/10/24 16:02:24;;;;;;;13.90;7.60;;;;;;;17.03;73.85;99554.37;215252;1277;140370;-70
2022/10/24 16:07:28;;;;;;;10.80;5.80;;;;;;;16.95;74.32;99561.75;214637;1278;141612;-70
2022/10/24 16:12:33;;;;;;;12.40;6.90;;;;;;;16.86;74.53;99564.66;213508;1278;141578;-73
2022/10/24 16:17:39;;;;;;;9.20;5.90;;;;;;;16.75;74.68;99575.40;214131;1277;140665;-71
2022/10/24 16:22:44;;;;;;;11.90;6.80;;;;;;;16.64;74.91;99578.14;214919;1277;140719;-78
2022/10/24 16:27:50;;;;;;;;;;;;;;;16.56;75.23;99570.91;215147;1277;139694;-75
2022/10/24 16:32:56;;;;;;;12.50;7.10;;;;;;;16.38;75.26;99571.76;215761;1277;126095;-75
2022/10/24 16:38:06;;;;;;;11.40;7.60;;;;;;;16.26;75.48;99572.71;215116;1277;140973;-76
2022/10/24 16:43:12;;;;;;;14.60;6.80;;;;;;;16.25;75.72;99576.44;215168;1277;141088;-75
2022/10/24 16:48:17;;;;;;;10.60;8.00;;;;;;;16.18;75.85;99571.42;214772;1277;640435;-75
2022/10/24 16:53:24;;;;;;;11.20;6.30;;;;;;;16.09;76.15;99567.70;215127;1277;140634;-73
2022/10/24 16:58:37;;;;;;;11.90;9.00;;;;;;;16.01;76.37;99570.14;215164;1277;140652;-79
2022/10/24 17:03:46;;;;;;;12.30;7.50;;;;;;;15.98;76.44;99569.34;215173;1277;141924;-76
2022/10/24 17:08:55;;;;;;;17.20;9.10;;;;;;;15.92;76.49;99572.90;214974;1277;161806;-75
2022/10/24 17:14:04;;;;;;;15.90;8.80;;;;;;;15.94;76.92;99571.43;214621;1278;140243;-75
2022/10/24 17:19:13;;;;;;;15.30;8.70;;;;;;;15.90;76.99;99573.34;215131;1277;140874;-75
2022/10/24 17:24:24;;;;;;;13.50;8.70;;;;;;;15.83;77.20;99573.10;214232;1277;139673;-75
2022/10/24 17:29:32;;;;;;;11.30;8.70;;;;;;;15.76;77.24;99568.01;215217;1277;141079;-77
2022/10/24 17:34:38;;;;;;;13.10;7.90;;;;;;;15.69;77.45;99571.13;214811;1279;141069;-75
2022/10/24 17:39:50;;;;;;;8.10;6.30;;;;;;;15.66;77.85;99571.40;215125;1277;141492;-74
2022/10/24 17:44:54;;;;;;;11.60;9.10;;;;;;;15.63;77.94;99565.55;215272;1277;140633;-78
2022/10/24 17:49:59;;;;;;;16.20;8.70;;;;;;;15.59;78.07;99566.49;214948;1277;140403;-76
2022/10/24 17:55:04;;;;;;;13.50;8.70;;;;;;;15.58;78.08;99567.99;215081;1277;140869;-80
2022/10/24 18:00:10;;;;;;;19.10;8.60;;;;;;;15.56;78.34;99565.84;215215;1277;141207;-80
2022/10/24 18:05:16;;;;;;;13.70;9.40;;;;;;;15.51;78.35;99574.38;215128;1277;141083;-80
2022/10/24 18:10:21;;;;;;;19.00;8.50;;;;;;;15.51;78.74;99585.11;214057;1278;140911;-71
2022/10/24 18:15:26;;;;;;;10.60;7.50;;;;;;;15.58;79.02;99581.05;215056;1277;141117;-68
2022/10/24 18:20:31;;;;;;;9.90;7.70;;;;;;;15.65;79.08;99580.07;214855;1277;139767;-71
2022/10/24 18:25:36;;;;;;;12.80;8.80;;;;;;;15.69;79.12;99580.27;215018;1277;140081;-70
2022/10/24 18:30:44;;;;;;;14.50;6.90;;;;;;;15.69;79.25;99587.79;215136;1278;140657;-70
2022/10/24 18:35:50;;;;;;;10.20;8.00;;;;;;;15.69;79.20;99586.66;215334;1277;140365;-71
2022/10/24 18:40:54;;;;;;;9.80;8.20;;;;;;;15.67;79.15;99581.89;215212;1277;140842;-71
2022/10/24 18:45:59;;;;;;;12.90;8.40;;;;;;;15.70;79.43;99586.61;215123;1277;142133;-73
2022/10/24 18:51:07;;;;;;;17.20;6.80;;;;;;;15.77;79.55;99590.16;215277;1277;141357;-72
2022/10/24 18:56:15;;;;;;;14.10;8.40;;;;;;;15.83;79.54;99586.48;215085;1277;142808;-69
2022/10/24 19:02:04;;;;;;;10.20;7.40;;;;;;;15.85;79.62;99581.33;215257;1277;140514;-71
2022/10/24 19:07:11;;;;;;;11.20;7.30;;;;;;;15.91;79.43;99575.33;215271;1277;141702;-70
2022/10/24 19:12:16;;;;;;;12.20;7.20;;;;;;;15.91;79.46;99573.34;215321;1277;150855;-70
2022/10/24 19:17:23;;;;;;;17.80;8.70;;;;;;;15.94;79.36;99577.19;214970;1278;142378;-72
2022/10/24 19:22:30;;;;;;;8.50;6.90;;;;;;;15.96;79.59;99572.52;215160;1277;140725;-71
2022/10/24 19:27:36;;;;;;;9.80;7.50;;;;;;;15.95;79.33;99563.38;215002;1276;142184;-75
2022/10/24 19:32:41;;;;;;;14.30;7.00;;;;;;;15.97;79.28;99567.98;215135;1277;142035;-69
2022/10/24 19:37:46;;;;;;;16.50;6.20;;;;;;;16.04;79.32;99564.75;215173;1277;140295;-70
2022/10/24 19:42:52;;;;;;;10.50;6.80;;;;;;;16.08;79.32;99563.83;214953;1277;140062;-68
2022/10/24 19:47:56;;;;;;;9.80;6.30;;;;;;;16.09;79.14;99558.81;214756;1277;141039;-71
2022/10/24 19:53:01;;;;;;;10.90;6.10;;;;;;;16.11;79.21;99554.83;215377;1277;140272;-73
2022/10/24 19:58:12;;;;;;;12.10;6.90;;;;;;;16.15;78.98;99556.60;215226;1277;141404;-72
2022/10/24 20:03:16;;;;;;;12.20;6.40;;;;;;;16.18;78.81;99553.09;212844;1277;142016;-71
2022/10/24 20:08:28;;;;;;;12.20;6.70;;;;;;;16.19;78.89;99558.79;215065;1277;139879;-73
2022/10/24 20:13:32;;;;;;;10.40;5.90;;;;;;;16.10;78.58;99561.02;215238;1276;141038;-74
2022/10/24 20:18:37;;;;;;;17.90;7.50;;;;;;;16.02;78.71;99563.67;214982;1277;140139;-73
2022/10/24 20:23:41;;;;;;;8.80;5.90;;;;;;;16.03;78.69;99556.52;213749;1277;140829;-73
2022/10/24 20:28:49;;;;;;;11.20;6.40;;;;;;;16.03;78.69;99558.56;215227;1277;140429;-71
2022/10/24 20:34:00;;;;;;;10.10;5.60;;;;;;;16.02;78.66;99568.99;214820;1279;140201;-70
2022/10/24 20:39:14;;;;;;;8.00;4.20;;;;;;;15.96;78.52;99573.10;215091;1277;140060;-71
2022/10/24 20:44:20;;;;;;;9.50;6.00;;;;;;;15.84;78.30;99577.34;215096;1277;140413;-73
2022/10/24 20:49:25;;;;;;;8.90;5.60;;;;;;;15.74;78.38;99586.88;215143;1277;140442;-72
2022/10/24 20:54:29;;;;;;;7.40;5.20;;;;;;;15.73;78.63;99590.58;215156;1278;140202;-73
2022/10/24 20:59:33;;;;;;;9.50;4.90;;;;;;;15.72;78.81;99592.05;215155;1277;140143;-73
2022/10/24 21:04:39;;;;;;;11.60;5.70;;;;;;;15.74;79.05;99598.59;215151;1276;139972;-75
2022/10/24 21:09:43;;;;;;;10.70;5.90;;;;;;;15.76;78.92;99614.02;214681;1277;140557;-72
2022/10/24 21:14:48;;;;;;;30.50;5.80;;;;;;;15.73;78.88;99622.34;215194;1277;140789;-68
2022/10/24 21:19:52;;;;;;;11.10;4.90;;;;;;;15.64;78.87;99620.32;214972;1278;141393;-72
2022/10/24 21:24:56;;;;;;;11.10;5.30;;;;;;;15.62;79.35;99619.45;215360;1277;146172;-70
2022/10/24 21:30:01;;;;;;;5.30;3.50;;;;;;;15.60;79.29;99619.09;215420;1277;141210;-73
2022/10/24 21:35:06;;;;;;;11.10;5.50;;;;;;;15.56;79.30;99620.80;215362;1277;141305;-78
2022/10/24 21:40:10;;;;;;;8.50;4.40;;;;;;;15.54;79.48;99619.23;214778;1278;143834;-73
2022/10/24 21:45:14;;;;;;;8.10;4.00;;;;;;;15.41;79.18;99610.89;213951;1277;139747;-74
2022/10/24 21:50:18;;;;;;;4.80;3.70;;;;;;;15.13;79.32;99605.80;215127;1277;151465;-74
2022/10/24 21:55:23;;;;;;;11.30;4.40;;;;;;;14.97;79.96;99613.52;215117;1277;140437;-68
2022/10/24 22:00:28;;;;;;;6.00;4.30;;;;;;;14.99;80.68;99613.67;215316;1277;140746;-75
2022/10/24 22:05:32;;;;;;;9.60;5.30;;;;;;;15.10;80.95;99617.34;213819;1277;140447;-72
2022/10/24 22:10:37;;;;;;;10.60;4.30;;;;;;;15.20;81.02;99617.35;215262;1277;139800;-71
2022/10/24 22:15:42;;;;;;;9.00;4.90;;;;;;;15.16;80.56;99615.68;215100;1277;141614;-73
2022/10/24 22:20:52;;;;;;;9.20;5.00;;;;;;;15.09;80.84;99616.42;215124;1277;140532;-73
2022/10/24 22:25:57;;;;;;;5.30;4.60;;;;;;;15.08;81.11;99612.61;214405;1277;140027;-73
2022/10/24 22:31:01;;;;;;;15.20;5.90;;;;;;;15.03;81.06;99616.25;214983;1277;141566;-73
2022/10/24 22:36:05;;;;;;;7.90;6.30;;;;;;;14.98;81.01;99621.98;215387;1277;140102;-73
2022/10/24 22:41:09;;;;;;;9.70;5.20;;;;;;;14.94;81.06;99627.15;214979;1277;140230;-76
2022/10/24 22:46:28;;;;;;;9.30;6.90;;;;;;;14.98;81.38;99628.12;215208;1277;140844;-66
2022/10/24 22:51:32;;;;;;;10.10;6.40;;;;;;;15.02;81.50;99615.98;215375;1277;141979;-76
2022/10/24 22:56:37;;;;;;;8.40;5.60;;;;;;;15.01;81.56;99612.16;215470;1277;139914;-75
2022/10/24 23:01:53;;;;;;;10.40;7.00;;;;;;;15.02;81.72;99608.04;215302;1277;139542;-75
2022/10/24 23:07:09;;;;;;;17.60;6.40;;;;;;;14.95;81.19;99616.98;215317;1277;140367;-73
2022/10/24 23:12:17;;;;;;;13.80;4.00;;;;;;;14.87;81.43;99643.56;215451;1277;141419;-71
2022/10/24 23:17:22;;;;;;;10.90;4.40;;;;;;;14.89;81.65;99638.36;215377;1277;141131;-70
2022/10/24 23:22:29;;;;;;;9.50;5.60;;;;;;;14.86;81.70;99653.32;215433;1276;140914;-70